createdAt,value
2018-02-13T00:01:59.816Z,91.00
2018-02-13T00:04:27.571Z,91.10
2018-02-13T00:06:55.621Z,91.10
2018-02-13T00:09:23.120Z,91.00
2018-02-13T00:11:51.475Z,91.10
2018-02-13T00:14:19.864Z,91.10
2018-02-13T00:16:48.451Z,91.10
2018-02-13T00:19:15.966Z,91.10
2018-02-13T00:21:43.523Z,91.20
2018-02-13T00:24:11.192Z,91.20
2018-02-13T00:26:38.721Z,91.10
2018-02-13T00:29:06.263Z,91.30
2018-02-13T00:31:34.555Z,91.20
2018-02-13T00:34:02.108Z,91.20
2018-02-13T00:36:30.433Z,91.30
2018-02-13T00:38:57.961Z,91.30
2018-02-13T00:41:25.514Z,91.30
2018-02-13T00:43:53.209Z,91.40
2018-02-13T00:46:20.730Z,91.40
2018-02-13T00:48:49.039Z,91.30
2018-02-13T00:51:16.554Z,91.30
2018-02-13T00:53:44.870Z,91.30
2018-02-13T00:56:12.454Z,91.30
2018-02-13T00:58:39.997Z,91.40
2018-02-13T01:01:07.507Z,91.40
2018-02-13T01:03:36.634Z,91.50
2018-02-13T01:06:04.176Z,91.50
2018-02-13T01:08:32.474Z,91.40
2018-02-13T01:11:00.022Z,91.30
2018-02-13T01:13:27.541Z,91.50
2018-02-13T01:15:55.157Z,91.50
2018-02-13T01:18:22.663Z,91.40
2018-02-13T01:20:50.234Z,91.40
2018-02-13T01:23:18.542Z,91.60
2018-02-13T01:25:46.087Z,91.60
2018-02-13T01:28:13.607Z,91.60
2018-02-13T01:30:41.145Z,91.40
2018-02-13T01:33:08.770Z,91.60
2018-02-13T01:35:36.370Z,91.80
2018-02-13T01:38:03.924Z,91.80
2018-02-13T01:40:31.517Z,91.80
2018-02-13T01:42:59.055Z,91.90
2018-02-13T01:45:26.603Z,91.80
2018-02-13T01:47:54.138Z,91.70
2018-02-13T01:50:25.658Z,91.70
2018-02-13T01:52:53.946Z,91.90
2018-02-13T01:55:21.487Z,91.90
2018-02-13T01:57:49.767Z,92.10
2018-02-13T02:00:18.091Z,92.00
2018-02-13T02:02:45.615Z,92.00
2018-02-13T02:05:13.918Z,92.00
2018-02-13T02:07:41.452Z,92.00
2018-02-13T02:10:09.788Z,92.20
2018-02-13T02:12:37.415Z,91.80
2018-02-13T02:15:04.955Z,91.80
2018-02-13T02:17:32.466Z,91.80
2018-02-13T02:20:00.090Z,91.70
2018-02-13T02:22:27.602Z,91.80
2018-02-13T02:24:55.143Z,91.80
2018-02-13T02:27:22.702Z,91.70
2018-02-13T02:29:50.246Z,91.70
2018-02-13T02:32:17.774Z,91.60
2018-02-13T02:34:45.350Z,91.50
2018-02-13T02:37:12.999Z,91.50
2018-02-13T02:39:40.535Z,91.50
2018-02-13T02:42:08.859Z,91.50
2018-02-13T02:44:36.402Z,91.50
2018-02-13T02:47:04.058Z,91.50
2018-02-13T02:49:31.574Z,91.50
2018-02-13T02:51:59.119Z,91.40
2018-02-13T02:54:26.854Z,91.50
2018-02-13T02:56:54.404Z,91.50
2018-02-13T02:59:21.942Z,91.50
2018-02-13T03:01:50.256Z,91.50
2018-02-13T03:04:17.759Z,91.50
2018-02-13T03:06:45.315Z,91.60
2018-02-13T03:09:12.906Z,91.70
2018-02-13T03:11:40.446Z,91.90
2018-02-13T03:14:08.727Z,91.90
2018-02-13T03:16:37.142Z,91.80
2018-02-13T03:19:04.663Z,91.80
2018-02-13T03:21:32.987Z,91.90
2018-02-13T03:24:00.540Z,91.90
2018-02-13T03:26:28.174Z,91.80
2018-02-13T03:28:55.719Z,91.80
2018-02-13T03:31:24.012Z,91.90
2018-02-13T03:33:51.547Z,91.90
2018-02-13T03:36:19.842Z,92.00
2018-02-13T03:38:47.412Z,92.00
2018-02-13T03:41:14.921Z,92.00
2018-02-13T03:43:42.463Z,92.30
2018-02-13T03:46:09.991Z,92.10
2018-02-13T03:48:42.340Z,92.10
2018-02-13T03:51:10.607Z,92.00
2018-02-13T03:53:38.945Z,91.90
2018-02-13T03:56:06.591Z,91.90
2018-02-13T03:58:34.130Z,91.80
2018-02-13T04:01:01.644Z,92.00
2018-02-13T04:03:29.181Z,91.80
2018-02-13T04:05:56.681Z,91.80
2018-02-13T04:08:25.011Z,91.80
2018-02-13T04:10:52.573Z,91.80
2018-02-13T04:13:20.119Z,91.70
2018-02-13T04:15:47.635Z,91.70
2018-02-13T04:18:15.955Z,91.70
2018-02-13T04:20:43.500Z,91.60
2018-02-13T04:23:11.050Z,91.70
2018-02-13T04:25:38.662Z,91.60
2018-02-13T04:28:06.195Z,91.60
2018-02-13T04:30:33.735Z,91.70
2018-02-13T04:33:01.259Z,91.70
2018-02-13T04:35:28.895Z,91.80
2018-02-13T04:37:56.449Z,91.80
2018-02-13T04:40:24.801Z,91.90
2018-02-13T04:42:52.443Z,91.90
2018-02-13T04:45:20.757Z,92.00
2018-02-13T04:47:48.266Z,92.00
2018-02-13T04:50:16.584Z,92.30
2018-02-13T04:55:16.812Z,91.90
2018-02-13T04:57:44.324Z,91.90
2018-02-13T05:00:11.863Z,92.00
2018-02-13T05:02:39.391Z,92.10
2018-02-13T05:05:06.935Z,92.20
2018-02-13T05:07:34.464Z,92.20
2018-02-13T05:10:02.159Z,92.40
2018-02-13T05:15:01.478Z,92.40
2018-02-13T05:17:29.011Z,92.50
2018-02-13T05:19:57.351Z,92.60
2018-02-13T05:22:24.888Z,92.60
2018-02-13T05:24:52.560Z,92.70
2018-02-13T05:29:51.862Z,92.70
2018-02-13T05:34:51.132Z,92.70
2018-02-13T05:37:18.675Z,92.60
2018-02-13T05:39:46.259Z,92.40
2018-02-13T05:42:13.847Z,92.60
2018-02-13T05:44:43.858Z,92.60
2018-02-13T05:47:11.622Z,92.60
2018-02-13T05:49:39.165Z,92.60
2018-02-13T05:52:07.146Z,92.50
2018-02-13T05:54:35.435Z,92.50
2018-02-13T05:57:03.013Z,92.50
2018-02-13T05:59:30.769Z,92.40
2018-02-13T06:01:58.312Z,92.40
2018-02-13T06:04:25.834Z,92.30
2018-02-13T06:11:57.650Z,92.30
2018-02-13T06:14:25.222Z,92.40
2018-02-13T06:16:52.861Z,92.20
2018-02-13T06:19:21.155Z,92.40
2018-02-13T06:21:48.818Z,92.40
2018-02-13T06:24:16.344Z,92.40
2018-02-13T06:26:44.074Z,92.50
2018-02-13T06:29:11.613Z,92.40
2018-02-13T06:34:10.903Z,92.10
2018-02-13T06:36:39.307Z,92.20
2018-02-13T06:39:06.864Z,92.10
2018-02-13T06:41:34.418Z,92.20
2018-02-13T06:44:02.090Z,92.20
2018-02-13T06:46:29.639Z,92.20
2018-02-13T06:48:57.152Z,92.10
2018-02-13T06:51:24.712Z,92.20
2018-02-13T06:53:52.238Z,92.20
2018-02-13T06:56:19.796Z,92.00
2018-02-13T06:58:47.351Z,91.90
2018-02-13T07:01:14.889Z,91.90
2018-02-13T07:03:42.418Z,91.60
2018-02-13T07:06:10.018Z,91.40
2018-02-13T07:08:37.532Z,90.80
2018-02-13T07:13:37.572Z,90.00
2018-02-13T07:16:05.881Z,88.50
2018-02-13T07:18:33.441Z,88.50
2018-02-13T07:21:01.041Z,87.60
2018-02-13T07:23:30.070Z,86.50
2018-02-13T07:25:58.386Z,85.10
2018-02-13T07:28:25.898Z,85.00
2018-02-13T07:30:53.423Z,83.70
2018-02-13T07:33:20.955Z,83.30
2018-02-13T07:35:48.530Z,81.70
2018-02-13T07:38:16.417Z,80.40
2018-02-13T07:40:44.010Z,80.00
2018-02-13T07:43:12.451Z,77.80
2018-02-13T07:45:39.979Z,77.70
2018-02-13T07:48:07.518Z,76.20
2018-02-13T07:50:35.147Z,75.30
2018-02-13T07:53:02.902Z,74.00
2018-02-13T07:58:04.028Z,72.60
2018-02-13T08:03:03.370Z,72.00
2018-02-13T08:05:30.900Z,71.30
2018-02-13T08:07:58.551Z,70.30
2018-02-13T08:10:26.098Z,69.70
2018-02-13T08:12:54.489Z,69.40
2018-02-13T08:15:22.008Z,69.30
2018-02-13T08:17:49.623Z,69.00
2018-02-13T08:20:17.143Z,68.90
2018-02-13T08:22:45.449Z,68.30
2018-02-13T08:25:12.945Z,68.30
2018-02-13T08:27:41.096Z,66.70
2018-02-13T08:30:08.636Z,65.20
2018-02-13T08:32:36.287Z,63.70
2018-02-13T08:35:03.867Z,63.60
2018-02-13T08:37:31.411Z,63.00
2018-02-13T08:39:58.930Z,62.50
2018-02-13T08:42:26.482Z,62.70
2018-02-13T08:44:53.983Z,62.80
2018-02-13T08:47:21.523Z,63.10
2018-02-13T08:52:21.553Z,63.60
2018-02-13T08:54:49.903Z,62.00
2018-02-13T08:57:17.442Z,61.90
2018-02-13T08:59:44.936Z,61.00
2018-02-13T09:02:13.301Z,58.20
2018-02-13T09:07:12.750Z,58.40
2018-02-13T09:12:12.062Z,56.00
2018-02-13T09:14:39.583Z,55.30
2018-02-13T09:17:07.203Z,54.70
2018-02-13T09:19:34.758Z,55.40
2018-02-13T09:22:02.304Z,55.70
2018-02-13T09:24:29.829Z,55.40
2018-02-13T09:29:29.103Z,55.10
2018-02-13T09:31:56.731Z,55.00
2018-02-13T09:34:24.232Z,54.50
2018-02-13T09:36:51.782Z,54.40
2018-02-13T09:39:19.339Z,53.90
2018-02-13T09:41:46.887Z,54.80
2018-02-13T09:44:14.431Z,55.80
2018-02-13T09:46:41.978Z,55.00
2018-02-13T09:49:09.574Z,55.00
2018-02-13T09:51:37.200Z,53.90
2018-02-13T09:54:04.775Z,53.50
2018-02-13T09:56:33.059Z,53.40
2018-02-13T09:59:00.663Z,51.90
2018-02-13T10:01:28.322Z,51.30
2018-02-13T10:03:55.912Z,52.00
2018-02-13T10:06:24.232Z,54.60
2018-02-13T10:08:51.787Z,54.50
2018-02-13T10:11:19.399Z,54.40
2018-02-13T10:13:47.679Z,54.80
2018-02-13T10:16:15.222Z,54.80
2018-02-13T10:18:43.516Z,55.40
2018-02-13T10:21:11.048Z,55.40
2018-02-13T10:23:38.571Z,55.50
2018-02-13T10:26:06.149Z,55.10
2018-02-13T10:28:33.690Z,55.30
2018-02-13T10:31:01.256Z,53.60
2018-02-13T10:33:29.608Z,54.20
2018-02-13T10:35:57.288Z,54.20
2018-02-13T10:38:24.817Z,55.10
2018-02-13T10:40:52.368Z,55.50
2018-02-13T10:43:19.918Z,55.30
2018-02-13T10:45:48.306Z,55.10
2018-02-13T10:48:15.907Z,55.10
2018-02-13T10:50:43.439Z,55.30
2018-02-13T10:53:10.984Z,55.10
2018-02-13T10:55:38.495Z,55.50
2018-02-13T10:58:06.050Z,55.10
2018-02-13T11:00:39.259Z,54.60
2018-02-13T11:03:06.816Z,55.20
2018-02-13T11:05:34.339Z,55.30
2018-02-13T11:08:01.906Z,54.50
2018-02-13T11:10:29.489Z,53.20
2018-02-13T11:12:57.039Z,53.90
2018-02-13T11:15:24.564Z,53.00
2018-02-13T11:17:52.096Z,54.20
2018-02-13T11:20:19.677Z,54.30
2018-02-13T11:22:47.237Z,55.00
2018-02-13T11:25:14.818Z,55.00
2018-02-13T11:27:43.878Z,55.00
2018-02-13T11:30:11.418Z,55.90
2018-02-13T11:32:39.714Z,56.80
2018-02-13T11:35:07.247Z,56.80
2018-02-13T11:37:35.707Z,55.90
2018-02-13T11:40:03.273Z,55.90
2018-02-13T11:42:30.846Z,56.80
2018-02-13T11:44:59.178Z,56.50
2018-02-13T11:47:26.678Z,56.40
2018-02-13T11:49:55.278Z,56.90
2018-02-13T11:52:22.803Z,56.90
2018-02-13T11:54:50.342Z,56.30
2018-02-13T11:57:18.004Z,56.50
2018-02-13T11:59:45.610Z,56.30
2018-02-13T12:02:13.876Z,56.60
2018-02-13T12:04:42.215Z,57.10
2018-02-13T12:07:09.750Z,57.10
2018-02-13T12:09:37.489Z,56.90
2018-02-13T12:12:05.888Z,57.70
2018-02-13T12:14:33.444Z,57.70
2018-02-13T12:17:00.961Z,57.30
2018-02-13T12:19:28.547Z,58.10
2018-02-13T12:21:56.856Z,58.70
2018-02-13T12:24:24.461Z,58.60
2018-02-13T12:26:51.968Z,59.10
2018-02-13T12:29:19.591Z,59.60
2018-02-13T12:31:47.880Z,59.00
2018-02-13T12:34:16.223Z,60.50
2018-02-13T12:36:43.823Z,60.50
2018-02-13T12:39:12.145Z,61.60
2018-02-13T12:41:39.716Z,61.60
2018-02-13T12:44:07.344Z,62.00
2018-02-13T12:46:34.871Z,61.80
2018-02-13T12:49:03.273Z,62.10
2018-02-13T12:51:30.838Z,62.10
2018-02-13T12:53:58.422Z,62.10
2018-02-13T12:56:25.962Z,61.50
2018-02-13T12:58:54.669Z,62.00
2018-02-13T13:01:22.200Z,61.20
2018-02-13T13:03:51.299Z,60.60
2018-02-13T13:06:19.733Z,60.10
2018-02-13T13:08:49.077Z,60.30
2018-02-13T13:11:16.594Z,61.90
2018-02-13T13:13:44.179Z,62.70
2018-02-13T13:16:11.717Z,62.70
2018-02-13T13:18:41.235Z,61.80
2018-02-13T13:21:09.527Z,60.10
2018-02-13T13:23:39.223Z,60.00
2018-02-13T13:26:08.766Z,60.60
2018-02-13T13:28:36.307Z,60.40
2018-02-13T13:31:03.970Z,59.50
2018-02-13T13:33:31.498Z,59.30
2018-02-13T13:35:59.970Z,59.70
2018-02-13T13:38:29.644Z,59.70
2018-02-13T13:40:57.281Z,59.20
2018-02-13T13:43:24.795Z,59.40
2018-02-13T13:45:52.370Z,58.10
2018-02-13T13:48:20.642Z,58.40
2018-02-13T13:50:48.957Z,58.10
2018-02-13T13:53:16.496Z,57.90
2018-02-13T13:55:44.027Z,57.30
2018-02-13T13:58:11.579Z,58.00
2018-02-13T14:00:39.898Z,57.20
2018-02-13T14:03:07.444Z,57.20
2018-02-13T14:05:35.839Z,58.30
2018-02-13T14:08:03.359Z,58.30
2018-02-13T14:10:30.923Z,57.20
2018-02-13T14:12:59.294Z,57.10
2018-02-13T14:15:26.826Z,56.70
2018-02-13T14:17:54.339Z,56.90
2018-02-13T14:20:21.900Z,56.50
2018-02-13T14:22:50.293Z,56.60
2018-02-13T14:25:17.831Z,56.60
2018-02-13T14:27:46.218Z,57.60
2018-02-13T14:30:13.791Z,57.60
2018-02-13T14:32:41.312Z,57.60
2018-02-13T14:35:08.851Z,56.80
2018-02-13T14:37:36.395Z,56.80
2018-02-13T14:40:04.137Z,56.80
2018-02-13T14:42:31.652Z,56.40
2018-02-13T14:44:59.192Z,56.10
2018-02-13T14:47:26.777Z,57.20
2018-02-13T14:49:54.287Z,57.50
2018-02-13T14:52:21.798Z,56.60
2018-02-13T14:54:50.270Z,56.60
2018-02-13T14:57:17.972Z,56.60
2018-02-13T14:59:47.008Z,56.30
2018-02-13T15:02:18.197Z,56.20
2018-02-13T15:04:49.204Z,56.40
2018-02-13T15:07:16.773Z,56.40
2018-02-13T15:09:45.083Z,56.80
2018-02-13T15:12:12.586Z,56.70
2018-02-13T15:14:40.919Z,56.10
2018-02-13T15:17:19.472Z,56.70
2018-02-13T15:19:47.003Z,56.80
2018-02-13T15:22:14.733Z,57.20
2018-02-13T15:24:43.160Z,57.00
2018-02-13T15:27:10.860Z,56.90
2018-02-13T15:29:38.542Z,57.40
2018-02-13T15:32:06.824Z,56.10
2018-02-13T15:34:35.179Z,56.70
2018-02-13T15:37:02.751Z,56.70
2018-02-13T15:39:31.256Z,58.10
2018-02-13T15:41:58.794Z,57.20
2018-02-13T15:44:27.086Z,56.30
2018-02-13T15:47:15.491Z,56.30
2018-02-13T15:49:44.545Z,56.50
2018-02-13T15:52:12.398Z,56.50
2018-02-13T15:54:39.900Z,55.90
2018-02-13T15:57:07.475Z,56.00
2018-02-13T15:59:34.979Z,56.30
2018-02-13T16:02:02.547Z,57.10
2018-02-13T16:04:30.086Z,57.20
2018-02-13T16:06:57.762Z,56.90
2018-02-13T16:09:25.475Z,56.30
2018-02-13T16:11:53.019Z,56.80
2018-02-13T16:14:20.637Z,56.90
2018-02-13T16:16:49.569Z,57.40
2018-02-13T16:19:17.137Z,57.50
2018-02-13T16:21:44.692Z,58.30
2018-02-13T16:24:12.259Z,58.70
2018-02-13T16:26:39.871Z,58.90
2018-02-13T16:29:07.417Z,58.70
2018-02-13T16:31:35.100Z,58.90
2018-02-13T16:34:04.108Z,59.10
2018-02-13T16:36:31.636Z,59.00
2018-02-13T16:38:59.197Z,59.00
2018-02-13T16:41:26.817Z,58.90
2018-02-13T16:43:54.376Z,59.10
2018-02-13T16:46:21.954Z,59.20
2018-02-13T16:48:50.346Z,59.30
2018-02-13T16:51:18.667Z,59.60
2018-02-13T16:53:46.439Z,59.60
2018-02-13T16:56:13.963Z,59.70
2018-02-13T16:58:41.634Z,60.00
2018-02-13T17:01:09.170Z,60.20
2018-02-13T17:03:37.579Z,60.50
2018-02-13T17:06:07.604Z,60.50
2018-02-13T17:08:35.172Z,60.80
2018-02-13T17:11:03.173Z,61.10
2018-02-13T17:13:31.028Z,61.40
2018-02-13T17:15:58.680Z,61.80
2018-02-13T17:18:26.355Z,62.10
2018-02-13T17:20:53.872Z,62.40
2018-02-13T17:23:21.437Z,62.90
2018-02-13T17:25:48.990Z,63.50
2018-02-13T17:28:16.548Z,63.50
2018-02-13T17:30:44.111Z,63.70
2018-02-13T17:33:11.639Z,63.80
2018-02-13T17:35:39.223Z,64.30
2018-02-13T17:38:06.787Z,64.50
2018-02-13T17:40:34.414Z,64.90
2018-02-13T17:43:02.708Z,65.60
2018-02-13T17:45:30.301Z,65.60
2018-02-13T17:47:57.812Z,65.70
2018-02-13T17:50:26.111Z,66.00
2018-02-13T17:52:53.790Z,65.90
2018-02-13T17:55:21.442Z,66.00
2018-02-13T17:57:48.974Z,66.30
2018-02-13T18:00:17.283Z,66.10
2018-02-13T18:02:54.852Z,66.10
2018-02-13T18:05:22.368Z,66.70
2018-02-13T18:07:50.096Z,66.40
2018-02-13T18:10:17.664Z,66.60
2018-02-13T18:12:45.209Z,66.70
2018-02-13T18:15:12.773Z,66.60
2018-02-13T18:17:40.407Z,66.80
2018-02-13T18:20:08.720Z,67.00
2018-02-13T18:22:36.948Z,66.90
2018-02-13T18:25:05.324Z,66.90
2018-02-13T18:27:34.531Z,67.40
2018-02-13T18:30:02.847Z,67.50
2018-02-13T18:32:30.434Z,67.50
2018-02-13T18:34:58.005Z,68.00
2018-02-13T18:37:26.460Z,67.60
2018-02-13T18:39:54.032Z,67.80
2018-02-13T18:42:21.581Z,68.20
2018-02-13T18:44:49.109Z,68.10
2018-02-13T18:47:16.683Z,68.20
2018-02-13T18:49:44.236Z,68.60
2018-02-13T18:54:39.345Z,68.20
2018-02-13T18:57:06.886Z,68.60
2018-02-13T18:59:35.212Z,68.20
2018-02-13T19:02:02.787Z,68.10
2018-02-13T19:04:30.342Z,68.20
2018-02-13T19:06:58.031Z,67.80
2018-02-13T19:09:26.385Z,68.10
2018-02-13T19:11:53.996Z,68.10
2018-02-13T19:14:22.396Z,68.40
2018-02-13T19:19:17.908Z,68.60
2018-02-13T19:21:45.447Z,68.50
2018-02-13T19:24:13.733Z,69.10
2018-02-13T19:26:41.378Z,69.00
2018-02-13T19:29:09.690Z,68.90
2018-02-13T19:31:37.253Z,68.90
2018-02-13T19:34:05.539Z,68.40
2018-02-13T19:36:33.127Z,68.40
2018-02-13T19:39:00.667Z,68.80
2018-02-13T19:41:28.244Z,68.60
2018-02-13T19:43:55.762Z,68.50
2018-02-13T19:46:23.479Z,68.70
2018-02-13T19:48:51.023Z,68.60
2018-02-13T19:51:18.554Z,69.40
2018-02-13T19:53:46.163Z,69.00
2018-02-13T19:56:13.738Z,69.00
2018-02-13T19:58:42.048Z,69.40
2018-02-13T20:01:09.616Z,69.40
2018-02-13T20:03:37.145Z,69.90
2018-02-13T20:06:04.691Z,69.80
2018-02-13T20:08:34.020Z,69.50
2018-02-13T20:11:01.570Z,69.50
2018-02-13T20:13:29.102Z,69.60
2018-02-13T20:15:58.304Z,69.60
2018-02-13T20:18:26.581Z,69.90
2018-02-13T20:20:54.913Z,70.20
2018-02-13T20:23:22.443Z,70.10
2018-02-13T20:25:50.090Z,70.00
2018-02-13T20:28:19.322Z,70.50
2018-02-13T20:30:46.864Z,70.50
2018-02-13T20:33:14.392Z,70.20
2018-02-13T20:35:42.692Z,70.20
2018-02-13T20:38:10.339Z,70.10
2018-02-13T20:40:38.778Z,70.30
2018-02-13T20:43:06.759Z,70.30
2018-02-13T20:45:34.375Z,70.40
2018-02-13T20:48:01.900Z,70.50
2018-02-13T20:50:30.298Z,70.30
2018-02-13T20:52:57.826Z,70.30
2018-02-13T20:55:25.386Z,70.30
2018-02-13T20:57:54.132Z,70.30
2018-02-13T21:00:21.728Z,70.60
2018-02-13T21:02:49.323Z,70.60
2018-02-13T21:05:16.859Z,70.60
2018-02-13T21:07:45.301Z,71.10
2018-02-13T21:10:12.901Z,71.10
2018-02-13T21:12:42.497Z,71.10
2018-02-13T21:15:10.214Z,71.20
2018-02-13T21:17:38.824Z,71.40
2018-02-13T21:20:06.327Z,71.20
2018-02-13T21:22:34.677Z,71.20
2018-02-13T21:25:03.971Z,71.10
2018-02-13T21:27:31.503Z,71.00
2018-02-13T21:29:59.048Z,71.10
2018-02-13T21:32:26.710Z,71.10
2018-02-13T21:34:54.245Z,71.20
2018-02-13T21:37:23.280Z,71.20
2018-02-13T21:39:50.843Z,71.20
2018-02-13T21:42:18.498Z,71.40
2018-02-13T21:44:46.024Z,71.50
2018-02-13T21:47:13.548Z,71.70
2018-02-13T21:49:41.163Z,71.80
2018-02-13T21:52:08.769Z,72.70
2018-02-13T21:54:36.292Z,73.20
2018-02-13T21:57:03.926Z,73.40
2018-02-13T21:59:31.436Z,73.50
2018-02-13T22:02:00.904Z,73.20
2018-02-13T22:04:28.415Z,73.40
2018-02-13T22:06:56.733Z,73.50
2018-02-13T22:09:24.232Z,72.80
2018-02-13T22:11:51.780Z,72.60
2018-02-13T22:14:19.337Z,72.60
2018-02-13T22:16:46.893Z,72.40
2018-02-13T22:19:14.445Z,72.40
2018-02-13T22:21:42.025Z,72.30
2018-02-13T22:24:09.658Z,72.10
2018-02-13T22:26:37.182Z,72.30
2018-02-13T22:29:05.535Z,71.80
2018-02-13T22:31:33.087Z,71.70
2018-02-13T22:34:00.670Z,72.30
2018-02-13T22:36:28.962Z,71.20
2018-02-13T22:38:56.542Z,71.20
2018-02-13T22:41:24.314Z,71.10
2018-02-13T22:43:51.939Z,71.10
2018-02-13T22:46:20.583Z,71.10
2018-02-13T22:48:48.300Z,71.00
2018-02-13T22:51:16.778Z,71.20
2018-02-13T22:53:45.092Z,71.30
2018-02-13T22:56:12.640Z,71.30
2018-02-13T22:58:40.254Z,71.40
2018-02-13T23:01:08.665Z,71.60
2018-02-13T23:03:36.227Z,71.60
2018-02-13T23:06:03.730Z,71.80
2018-02-13T23:08:31.332Z,71.60
2018-02-13T23:10:59.622Z,71.60
2018-02-13T23:13:27.235Z,71.60
2018-02-13T23:15:54.843Z,71.20
2018-02-13T23:18:22.390Z,71.40
2018-02-13T23:20:50.706Z,71.10
2018-02-13T23:23:18.236Z,71.10
2018-02-13T23:25:45.841Z,71.20
2018-02-13T23:28:13.491Z,71.50
2018-02-13T23:30:41.223Z,71.30
2018-02-13T23:33:08.782Z,71.50
2018-02-13T23:35:36.312Z,71.50
2018-02-13T23:38:04.617Z,71.40
2018-02-13T23:40:32.165Z,71.30
2018-02-13T23:43:00.469Z,71.30
2018-02-13T23:45:28.051Z,71.30
2018-02-13T23:47:55.568Z,71.60
2018-02-13T23:50:23.120Z,71.40
2018-02-13T23:52:50.632Z,71.70
2018-02-13T23:55:18.213Z,71.50
2018-02-13T23:57:45.773Z,71.50
